createdAt,value
2018-06-13T11:27:02.042Z,18.20
2018-06-13T11:31:58.313Z,18.70
2018-06-13T11:34:26.566Z,18.90
2018-06-13T11:41:50.873Z,19.60
2018-06-13T11:44:19.093Z,19.70
2018-06-13T11:46:47.422Z,19.70
2018-06-13T11:49:15.764Z,19.90
2018-06-13T11:51:44.026Z,20.20
2018-06-13T11:56:40.350Z,20.70
2018-06-13T12:01:36.565Z,20.80
2018-06-13T12:06:32.866Z,21.10
2018-06-13T12:09:01.518Z,21.10
2018-06-13T12:11:30.020Z,20.60
2018-06-13T12:13:58.324Z,21.10
2018-06-13T12:18:54.646Z,20.70
2018-06-13T12:21:22.882Z,20.70
2018-06-13T12:23:52.571Z,20.50
2018-06-13T12:26:20.776Z,20.70
2018-06-13T12:28:49.059Z,20.80
2018-06-13T12:31:17.398Z,20.60
2018-06-13T12:33:45.662Z,20.40
2018-06-13T12:36:13.857Z,20.50
2018-06-13T12:41:10.491Z,20.80
2018-06-13T12:43:38.826Z,20.70
2018-06-13T12:46:07.167Z,20.60
2018-06-13T12:51:03.467Z,20.30
2018-06-13T12:53:31.715Z,20.30
2018-06-13T12:55:59.917Z,20.40
2018-06-13T12:58:28.266Z,20.60
2018-06-13T13:00:56.576Z,20.80
2018-06-13T13:03:24.816Z,21.30
2018-06-13T13:08:21.073Z,21.80
2018-06-13T13:10:49.392Z,21.90
2018-06-13T13:13:17.718Z,22.00
2018-06-13T13:15:45.942Z,22.00
2018-06-13T13:18:14.199Z,21.90
2018-06-13T13:20:42.454Z,21.90
2018-06-13T13:23:11.033Z,21.90
2018-06-13T13:25:39.258Z,21.80
2018-06-13T13:30:35.623Z,21.70
2018-06-13T13:37:59.995Z,21.40
2018-06-13T13:40:28.322Z,21.40
2018-06-13T13:42:56.548Z,21.40
2018-06-13T13:45:24.836Z,21.30
2018-06-13T13:47:53.191Z,21.30
2018-06-13T13:50:21.414Z,21.20
2018-06-13T13:52:49.726Z,21.10
2018-06-13T13:55:18.111Z,21.20
2018-06-13T13:57:46.385Z,20.90
2018-06-13T14:00:14.699Z,20.60
2018-06-13T14:02:42.897Z,20.60
2018-06-13T14:05:11.225Z,20.60
2018-06-13T14:07:39.480Z,20.70
2018-06-13T14:10:07.742Z,21.00
2018-06-13T14:12:36.042Z,21.20
2018-06-13T14:17:32.316Z,21.10
2018-06-13T14:20:00.582Z,21.20
2018-06-13T14:24:56.929Z,21.00
2018-06-13T14:27:25.159Z,20.80
2018-06-13T14:34:49.715Z,21.00
2018-06-13T14:39:45.913Z,21.00
2018-06-13T14:42:14.772Z,20.70
2018-06-13T14:47:11.093Z,20.50
2018-06-13T14:49:39.705Z,20.30
2018-06-13T14:57:04.122Z,20.50
2018-06-13T14:59:34.265Z,20.40
2018-06-13T15:07:02.628Z,20.40
2018-06-13T15:09:30.940Z,20.30
2018-06-13T15:11:59.222Z,20.30
2018-06-13T15:19:25.838Z,20.60
2018-06-13T15:21:54.126Z,20.80
2018-06-13T15:24:22.987Z,20.90
2018-06-13T15:26:51.266Z,20.90
2018-06-13T15:29:19.844Z,20.90
2018-06-13T15:34:16.318Z,20.70
2018-06-13T15:36:44.665Z,20.60
2018-06-13T15:41:43.210Z,20.40
2018-06-13T15:51:35.695Z,20.30
2018-06-13T15:54:04.097Z,20.30
2018-06-13T15:56:32.378Z,20.40
2018-06-13T16:03:57.878Z,20.10
2018-06-13T16:08:54.160Z,20.20
2018-06-13T16:11:22.574Z,20.10
2018-06-13T16:13:51.382Z,20.10
2018-06-13T16:18:47.677Z,20.10
2018-06-13T16:21:15.990Z,20.00
2018-06-13T16:23:44.275Z,20.00
2018-06-13T16:26:12.569Z,20.00
2018-06-13T16:31:08.814Z,19.90
2018-06-13T16:33:37.113Z,20.00
2018-06-13T16:36:05.418Z,20.00
2018-06-13T16:38:33.714Z,20.00
2018-06-13T16:51:06.076Z,19.80
2018-06-13T16:53:45.925Z,19.70
2018-06-13T16:56:15.351Z,19.60
2018-06-13T16:58:43.643Z,19.70
2018-06-13T17:03:40.268Z,19.50
2018-06-13T17:06:08.515Z,19.40
2018-06-13T17:13:32.756Z,19.30
2018-06-13T17:16:01.336Z,19.20
2018-06-13T17:18:29.893Z,19.10
2018-06-13T17:20:58.346Z,19.10
2018-06-13T17:23:26.563Z,19.10
2018-06-13T17:25:54.884Z,19.30
2018-06-13T17:28:23.195Z,19.10
2018-06-13T17:30:51.401Z,19.10
2018-06-13T17:33:19.669Z,19.10
2018-06-13T17:35:47.950Z,19.10
2018-06-13T17:38:22.870Z,19.10
2018-06-13T17:40:51.119Z,19.00
2018-06-13T17:43:19.322Z,19.00
2018-06-13T17:45:47.881Z,19.00
2018-06-13T17:50:44.090Z,19.00
2018-06-13T17:53:12.756Z,19.00
2018-06-13T17:55:41.049Z,18.90
2018-06-13T17:58:09.434Z,18.90
2018-06-13T18:00:38.049Z,18.80
2018-06-13T18:03:06.248Z,18.80
2018-06-13T18:05:34.503Z,18.70
2018-06-13T18:08:02.781Z,18.80
2018-06-13T18:10:31.064Z,18.70
2018-06-13T18:12:59.340Z,18.60
2018-06-13T18:15:27.621Z,18.50
2018-06-13T18:22:51.918Z,18.40
2018-06-13T18:27:48.212Z,18.40
2018-06-13T18:30:16.490Z,18.40
2018-06-13T18:37:40.856Z,18.10
2018-06-13T18:40:09.197Z,18.20
2018-06-13T18:45:05.520Z,18.10
2018-06-13T18:50:01.862Z,18.00
2018-06-13T18:52:30.510Z,18.10
2018-06-13T18:54:58.790Z,18.10
2018-06-13T18:59:55.087Z,18.00
2018-06-13T19:02:23.332Z,17.90
2018-06-13T19:04:51.558Z,17.90
2018-06-13T19:07:20.169Z,17.90
2018-06-13T19:09:48.450Z,17.90
2018-06-13T19:12:16.694Z,17.80
2018-06-13T19:14:45.553Z,17.70
2018-06-13T19:17:13.778Z,17.70
2018-06-13T19:19:42.058Z,17.60
2018-06-13T19:22:10.325Z,17.50
2018-06-13T19:24:38.601Z,17.50
2018-06-13T19:32:02.840Z,17.30
2018-06-13T19:36:59.042Z,17.20
2018-06-13T19:41:55.285Z,17.20
2018-06-13T19:46:51.649Z,17.10
2018-06-13T19:49:19.943Z,17.10
2018-06-13T19:51:48.309Z,17.00
2018-06-13T19:56:49.977Z,16.90
2018-06-13T19:59:18.174Z,16.90
2018-06-13T20:04:20.130Z,16.80
2018-06-13T20:06:48.406Z,16.70
2018-06-13T20:09:16.658Z,16.70
2018-06-13T20:11:44.934Z,16.60
2018-06-13T20:14:18.735Z,16.60
2018-06-13T20:16:53.115Z,16.60
2018-06-13T20:19:41.125Z,16.50
2018-06-13T20:29:44.366Z,16.40
2018-06-13T20:32:12.703Z,16.40
2018-06-13T20:34:40.930Z,16.40
2018-06-13T20:39:37.268Z,16.40
2018-06-13T20:42:05.613Z,16.30
2018-06-13T20:49:30.308Z,16.30
2018-06-13T20:52:04.151Z,16.30
2018-06-13T21:01:56.885Z,16.30
2018-06-13T21:04:25.138Z,16.30
2018-06-13T21:06:53.493Z,16.30
2018-06-13T21:09:21.729Z,16.30
2018-06-13T21:31:34.719Z,16.10
2018-06-13T21:34:03.156Z,16.10
2018-06-13T21:48:51.615Z,16.30
2018-06-13T21:51:19.934Z,16.40
2018-06-13T21:53:48.239Z,16.40
2018-06-13T21:56:16.494Z,16.50
2018-06-13T21:58:44.826Z,16.60
2018-06-13T22:03:41.050Z,16.70
2018-06-13T22:08:37.421Z,16.20
2018-06-13T22:11:05.698Z,16.40
2018-06-13T22:14:38.972Z,16.40
2018-06-13T22:17:07.309Z,16.20
2018-06-13T22:19:35.537Z,16.20
2018-06-13T22:22:03.942Z,16.10
2018-06-13T22:24:32.242Z,16.10
2018-06-13T22:27:00.474Z,16.10
2018-06-13T22:29:28.721Z,16.00
2018-06-13T22:31:56.926Z,16.00
2018-06-13T22:34:25.181Z,16.00
2018-06-13T22:36:53.448Z,16.10
2018-06-13T22:39:21.675Z,16.10
2018-06-13T22:41:49.951Z,16.00
2018-06-13T22:44:22.893Z,16.10
2018-06-13T22:46:51.174Z,16.10
2018-06-13T22:49:19.413Z,16.10
2018-06-13T22:51:47.670Z,16.10
2018-06-13T22:54:15.906Z,16.10
2018-06-13T22:56:44.158Z,16.00
2018-06-13T22:59:12.431Z,16.00
2018-06-13T23:01:40.714Z,15.90
2018-06-13T23:04:08.944Z,16.00
2018-06-13T23:06:37.623Z,16.00
2018-06-13T23:09:07.325Z,16.10
2018-06-13T23:11:35.681Z,16.10
2018-06-13T23:14:04.010Z,16.10
2018-06-13T23:16:32.326Z,16.10
2018-06-13T23:19:00.582Z,16.20
2018-06-13T23:21:29.318Z,16.10
2018-06-13T23:23:57.582Z,16.10
2018-06-13T23:26:25.790Z,16.00
2018-06-13T23:28:54.022Z,15.90
2018-06-13T23:31:22.229Z,16.10
2018-06-13T23:33:50.441Z,16.10
2018-06-13T23:36:18.756Z,16.10
2018-06-13T23:38:46.983Z,16.10
2018-06-13T23:41:15.194Z,16.00
2018-06-13T23:43:43.773Z,16.00
2018-06-13T23:46:11.996Z,16.10
2018-06-13T23:48:40.254Z,16.00
2018-06-13T23:51:08.567Z,16.00
2018-06-13T23:53:36.813Z,15.90
2018-06-13T23:56:05.059Z,15.90
2018-06-13T23:58:33.374Z,15.80
